Time;durP1;ratioP1;P1;durP2;ratioP2;P2;SDS_P1;SDS_P2;PMS_P1;PMS_P2;Temp;Humidity;BMP_temperature;BMP_pressure;BME280_temperature;BME280_humidity;BME280_pressure;Samples;Min_cycle;Max_cycle;Signal;HPM_P1;HPM_P2
2023/12/31 00:01:42;;;;;;;23.40;14.82;;;5.80;85.70;;;;;;4116214;28;20047;-79
2023/12/31 00:03:44;;;;;;;22.95;13.93;;;5.70;86.10;;;;;;4117044;28;20085;-80
2023/12/31 00:05:46;;;;;;;20.55;12.63;;;5.60;87.60;;;;;;4115458;28;20109;-80
2023/12/31 00:07:47;;;;;;;21.67;13.73;;;5.40;88.50;;;;;;4116421;28;20098;-81
2023/12/31 00:09:49;;;;;;;23.73;13.65;;;5.20;89.60;;;;;;4116604;28;20070;-80
2023/12/31 00:11:51;;;;;;;19.33;12.45;;;5.10;89.70;;;;;;4116608;28;20117;-79
2023/12/31 00:13:53;;;;;;;20.48;12.05;;;5.00;89.80;;;;;;4116590;28;20050;-81
2023/12/31 00:15:55;;;;;;;20.33;13.13;;;4.90;90.10;;;;;;4116595;28;20558;-80
2023/12/31 00:17:57;;;;;;;19.20;12.80;;;4.90;90.30;;;;;;4116382;28;20476;-81
2023/12/31 00:19:59;;;;;;;20.15;13.07;;;4.90;90.70;;;;;;4116520;28;20484;-81
2023/12/31 00:22:01;;;;;;;17.85;12.68;;;5.00;90.70;;;;;;4116488;28;20042;-79
2023/12/31 00:24:02;;;;;;;17.90;12.15;;;5.00;90.60;;;;;;4116380;28;20055;-79
2023/12/31 00:26:04;;;;;;;18.85;12.10;;;5.10;90.60;;;;;;4116385;28;20484;-81
2023/12/31 00:28:06;;;;;;;18.98;11.65;;;5.00;90.50;;;;;;4116122;28;20546;-82
2023/12/31 00:30:11;;;;;;;16.67;11.13;;;5.00;90.40;;;;;;4116492;28;20050;-81
2023/12/31 00:32:13;;;;;;;17.47;11.27;;;5.00;90.70;;;;;;4116457;28;20055;-82
2023/12/31 00:34:17;;;;;;;17.58;10.52;;;5.00;90.70;;;;;;4116386;28;20637;-80
2023/12/31 00:36:17;;;;;;;16.80;10.63;;;5.10;90.60;;;;;;4116282;28;20443;-82
2023/12/31 00:38:19;;;;;;;16.58;10.80;;;5.10;90.40;;;;;;4116252;28;20054;-79
2023/12/31 00:40:21;;;;;;;15.70;10.13;;;5.20;90.20;;;;;;4119475;28;20078;-81
2023/12/31 00:42:23;;;;;;;19.73;11.60;;;5.20;89.60;;;;;;4116182;28;20050;-81
2023/12/31 00:44:25;;;;;;;18.65;11.07;;;5.20;88.70;;;;;;4111536;28;20055;-80
2023/12/31 00:46:27;;;;;;;18.10;11.70;;;5.20;88.60;;;;;;4099780;28;20456;-80
2023/12/31 00:48:29;;;;;;;16.45;9.82;;;5.20;88.30;;;;;;4110651;28;20134;-81
2023/12/31 00:50:32;;;;;;;15.80;10.23;;;5.30;88.60;;;;;;4116074;28;20097;-81
2023/12/31 00:52:35;;;;;;;18.52;10.93;;;5.30;88.50;;;;;;4117647;28;20058;-81
2023/12/31 00:54:37;;;;;;;17.77;11.23;;;5.20;87.60;;;;;;4120344;28;20082;-77
2023/12/31 00:56:41;;;;;;;18.17;10.43;;;5.20;86.90;;;;;;4121588;28;20415;-81
2023/12/31 00:58:43;;;;;;;18.45;10.77;;;5.10;86.80;;;;;;4120087;28;20055;-81
2023/12/31 01:00:45;;;;;;;20.45;10.38;;;5.10;86.70;;;;;;4117310;28;20046;-80
2023/12/31 01:02:46;;;;;;;16.00;10.38;;;5.10;86.80;;;;;;4116142;28;20050;-80
2023/12/31 01:04:48;;;;;;;17.05;10.07;;;5.20;86.40;;;;;;4116238;28;20047;-82
2023/12/31 01:06:51;;;;;;;16.10;10.55;;;5.20;86.90;;;;;;4116276;28;20098;-79
2023/12/31 01:08:54;;;;;;;16.05;9.82;;;5.20;86.60;;;;;;4115873;28;20117;-77
2023/12/31 01:10:56;;;;;;;18.33;10.57;;;5.20;85.90;;;;;;4116394;28;20053;-79
2023/12/31 01:12:58;;;;;;;19.00;12.00;;;5.30;85.30;;;;;;4116307;28;20484;-79
2023/12/31 01:15:00;;;;;;;16.08;10.60;;;5.20;85.50;;;;;;4116289;28;20050;-77
2023/12/31 01:17:02;;;;;;;19.23;11.25;;;5.20;85.20;;;;;;4116009;28;20093;-79
2023/12/31 01:19:03;;;;;;;18.95;11.27;;;5.20;85.40;;;;;;4116158;28;20452;-79
2023/12/31 01:21:05;;;;;;;17.90;11.27;;;5.10;85.00;;;;;;4116334;28;20051;-80
2023/12/31 01:23:08;;;;;;;18.30;10.90;;;5.10;85.60;;;;;;4116206;28;20090;-79
2023/12/31 01:25:10;;;;;;;19.30;10.98;;;5.10;85.50;;;;;;4116027;28;20054;-78
2023/12/31 01:27:12;;;;;;;17.52;10.60;;;5.10;85.60;;;;;;4116312;28;20059;-79
2023/12/31 01:29:14;;;;;;;17.17;9.95;;;5.10;85.70;;;;;;4116361;28;20477;-77
2023/12/31 01:31:19;;;;;;;17.77;10.52;;;5.10;85.10;;;;;;4116345;28;20575;-79
2023/12/31 01:33:21;;;;;;;17.50;10.32;;;5.00;85.60;;;;;;4116263;28;20472;-78
2023/12/31 01:35:23;;;;;;;14.35;9.88;;;4.80;84.40;;;;;;4115856;28;20059;-80
2023/12/31 01:37:24;;;;;;;16.42;10.50;;;4.70;84.90;;;;;;4115847;28;20105;-77
2023/12/31 01:39:27;;;;;;;18.55;11.85;;;4.70;85.80;;;;;;4116072;28;20129;-80
2023/12/31 01:41:29;;;;;;;18.42;11.63;;;4.40;87.80;;;;;;4115969;28;20106;-79
2023/12/31 01:43:31;;;;;;;19.27;11.05;;;4.30;89.60;;;;;;4116045;28;20063;-78
2023/12/31 01:45:33;;;;;;;16.17;9.50;;;4.30;89.90;;;;;;4116122;28;20051;-80
2023/12/31 01:47:35;;;;;;;13.00;9.38;;;4.30;89.10;;;;;;4115468;28;20051;-78
2023/12/31 01:49:37;;;;;;;15.15;9.38;;;4.40;88.50;;;;;;4116014;28;20488;-79
2023/12/31 01:51:39;;;;;;;15.23;9.02;;;4.40;88.40;;;;;;4116001;28;20046;-79
2023/12/31 01:53:40;;;;;;;15.50;9.00;;;4.50;88.70;;;;;;4116001;28;20101;-79
2023/12/31 01:55:44;;;;;;;14.77;8.77;;;4.60;88.60;;;;;;4115934;28;20047;-79
2023/12/31 01:57:46;;;;;;;17.42;9.68;;;4.60;88.00;;;;;;4115873;28;20047;-80
2023/12/31 01:59:47;;;;;;;14.98;9.13;;;4.60;88.60;;;;;;4115976;28;20113;-80
2023/12/31 02:01:49;;;;;;;15.18;9.63;;;4.60;88.30;;;;;;4115857;28;20134;-80
2023/12/31 02:03:51;;;;;;;16.73;10.02;;;4.50;88.10;;;;;;4115753;28;20385;-80
2023/12/31 02:05:52;;;;;;;18.63;10.43;;;4.50;87.70;;;;;;4116171;28;20105;-79
2023/12/31 02:07:54;;;;;;;13.95;9.23;;;4.50;87.80;;;;;;4116074;28;20451;-80
2023/12/31 02:09:56;;;;;;;15.35;9.98;;;4.40;86.60;;;;;;4116942;28;20050;-81
2023/12/31 02:12:00;;;;;;;14.80;9.30;;;4.30;87.70;;;;;;4116717;28;20117;-81
2023/12/31 02:14:02;;;;;;;16.90;9.95;;;4.30;87.90;;;;;;4116418;28;20093;-80
2023/12/31 02:16:13;;;;;;;15.75;9.48;;;4.10;87.70;;;;;;4115588;28;20046;-79
2023/12/31 02:18:14;;;;;;;15.60;9.73;;;4.10;88.30;;;;;;4118028;28;20381;-81
2023/12/31 02:20:16;;;;;;;14.15;9.05;;;4.10;89.10;;;;;;4118819;28;20050;-80
2023/12/31 02:22:19;;;;;;;14.82;9.55;;;4.00;89.80;;;;;;4118640;28;20062;-79
2023/12/31 02:24:28;;;;;;;18.33;11.13;;;4.00;90.30;;;;;;4118362;28;20097;-79
2023/12/31 02:26:32;;;;;;;16.98;9.68;;;4.00;90.30;;;;;;4118678;28;20058;-79
2023/12/31 02:28:34;;;;;;;15.13;9.10;;;4.00;90.30;;;;;;4118293;28;20054;-81
2023/12/31 02:30:35;;;;;;;15.25;9.15;;;4.10;89.90;;;;;;4118376;28;20050;-81
2023/12/31 02:32:37;;;;;;;15.65;9.55;;;4.20;89.60;;;;;;4118836;28;20054;-78
2023/12/31 02:34:44;;;;;;;14.40;9.27;;;4.20;89.40;;;;;;4118514;28;20448;-80
2023/12/31 02:36:46;;;;;;;14.52;8.40;;;4.30;89.00;;;;;;4118313;28;20074;-79
2023/12/31 02:38:48;;;;;;;13.38;8.63;;;4.20;88.80;;;;;;4118310;28;20175;-79
2023/12/31 02:40:50;;;;;;;14.70;8.55;;;4.30;88.80;;;;;;4118370;28;20050;-79
2023/12/31 02:42:53;;;;;;;12.57;8.30;;;4.30;88.70;;;;;;4119560;28;20451;-80
2023/12/31 02:44:54;;;;;;;15.20;8.73;;;4.30;88.40;;;;;;4120348;28;20046;-81
2023/12/31 02:46:56;;;;;;;14.27;8.48;;;4.30;87.80;;;;;;4107309;28;20110;-80
2023/12/31 02:48:57;;;;;;;14.15;8.40;;;4.30;87.30;;;;;;4108873;28;20051;-79
2023/12/31 02:50:59;;;;;;;14.07;8.77;;;4.30;87.30;;;;;;4118361;28;20047;-81
2023/12/31 02:53:01;;;;;;;14.60;9.40;;;4.30;87.30;;;;;;4118152;28;20058;-80
2023/12/31 02:55:03;;;;;;;13.95;8.15;;;4.20;87.50;;;;;;4118244;28;20113;-80
2023/12/31 02:57:07;;;;;;;13.73;8.65;;;4.20;86.80;;;;;;4118117;28;20090;-77
2023/12/31 02:59:10;;;;;;;13.73;8.38;;;4.10;87.50;;;;;;4118092;28;20055;-78
2023/12/31 03:01:12;;;;;;;14.88;8.40;;;4.10;88.20;;;;;;4117996;28;20051;-79
2023/12/31 03:03:14;;;;;;;11.98;7.88;;;4.10;88.10;;;;;;4117677;28;20051;-80
2023/12/31 03:05:15;;;;;;;14.38;8.48;;;4.20;87.90;;;;;;4117884;28;20055;-78
2023/12/31 03:07:16;;;;;;;13.43;7.65;;;4.30;87.80;;;;;;4117839;28;20145;-79
2023/12/31 03:09:19;;;;;;;13.68;7.93;;;4.30;87.50;;;;;;4118052;28;20101;-80
2023/12/31 03:11:20;;;;;;;12.60;8.15;;;4.40;87.40;;;;;;4117886;28;20046;-81
2023/12/31 03:13:22;;;;;;;13.07;8.07;;;4.30;87.70;;;;;;4118066;28;20097;-81
2023/12/31 03:15:25;;;;;;;14.02;8.60;;;4.40;87.50;;;;;;4117692;28;20043;-80
2023/12/31 03:17:26;;;;;;;13.90;7.88;;;4.40;87.40;;;;;;4117713;28;20043;-79
2023/12/31 03:19:28;;;;;;;13.07;7.95;;;4.40;87.60;;;;;;4118035;28;20101;-80
2023/12/31 03:21:30;;;;;;;13.48;8.13;;;4.40;87.30;;;;;;4117707;28;20047;-78
2023/12/31 03:23:32;;;;;;;12.55;8.18;;;4.50;86.60;;;;;;4117970;28;20444;-82
2023/12/31 03:25:34;;;;;;;13.45;7.80;;;4.30;86.10;;;;;;4117664;28;20051;-79
2023/12/31 03:27:36;;;;;;;12.43;7.38;;;4.40;86.80;;;;;;4117576;28;20457;-77
2023/12/31 03:29:36;;;;;;;14.60;8.20;;;4.40;87.00;;;;;;4116052;28;20097;-79
2023/12/31 03:31:40;;;;;;;12.88;7.55;;;4.50;86.70;;;;;;4117573;28;20055;-78
2023/12/31 03:33:41;;;;;;;11.05;7.35;;;4.40;86.80;;;;;;4117587;28;20463;-78
2023/12/31 03:35:43;;;;;;;11.38;7.32;;;4.40;86.70;;;;;;4117392;28;20070;-80
2023/12/31 03:37:47;;;;;;;13.55;8.13;;;4.50;86.80;;;;;;4117507;28;20059;-78
2023/12/31 03:39:50;;;;;;;12.68;7.70;;;4.50;86.80;;;;;;4116948;28;20049;-77
2023/12/31 03:41:52;;;;;;;15.13;8.32;;;4.50;86.50;;;;;;4116713;28;20046;-80
2023/12/31 03:43:54;;;;;;;14.43;7.50;;;4.50;86.50;;;;;;4117420;28;20055;-78
2023/12/31 03:45:56;;;;;;;13.32;7.85;;;4.60;86.20;;;;;;4117275;28;20085;-80
2023/12/31 03:48:00;;;;;;;13.27;7.38;;;4.40;85.80;;;;;;4116808;28;20051;-79
2023/12/31 03:50:00;;;;;;;12.57;7.70;;;4.40;86.00;;;;;;4117088;28;20039;-80
2023/12/31 03:52:03;;;;;;;13.25;8.32;;;4.30;86.30;;;;;;4117250;28;20101;-78
2023/12/31 03:54:05;;;;;;;14.23;8.48;;;4.20;86.40;;;;;;4117263;28;20058;-78
2023/12/31 03:56:08;;;;;;;12.18;7.40;;;4.30;86.80;;;;;;4117357;28;20055;-80
2023/12/31 03:58:10;;;;;;;13.98;8.15;;;4.30;86.80;;;;;;4117087;28;20097;-79
2023/12/31 04:00:12;;;;;;;12.32;8.05;;;4.30;86.90;;;;;;4116975;28;20098;-81
2023/12/31 04:02:14;;;;;;;12.30;7.70;;;4.40;86.90;;;;;;4117261;28;20089;-78
2023/12/31 04:04:16;;;;;;;12.02;7.95;;;4.40;87.10;;;;;;4117076;28;20452;-79
2023/12/31 04:06:18;;;;;;;12.05;7.63;;;4.40;86.60;;;;;;4117030;28;20042;-79
2023/12/31 04:08:20;;;;;;;13.52;8.35;;;4.30;86.90;;;;;;4117225;28;20050;-79
2023/12/31 04:10:22;;;;;;;13.55;8.50;;;4.30;86.40;;;;;;4116935;28;20058;-80
2023/12/31 04:12:24;;;;;;;13.48;7.80;;;4.30;86.90;;;;;;4117069;28;20085;-80
2023/12/31 04:14:26;;;;;;;12.13;7.53;;;4.30;86.60;;;;;;4116841;28;20050;-78
2023/12/31 04:16:27;;;;;;;15.07;8.07;;;4.40;86.50;;;;;;4124594;28;20042;-80
2023/12/31 04:18:29;;;;;;;13.63;8.00;;;4.40;86.20;;;;;;4118259;28;21518;-80
2023/12/31 04:20:33;;;;;;;12.82;7.57;;;4.40;86.80;;;;;;4124577;28;20106;-78
2023/12/31 04:22:33;;;;;;;13.32;7.78;;;4.30;86.00;;;;;;4116975;28;20476;-80
2023/12/31 04:24:35;;;;;;;12.07;7.43;;;4.20;86.30;;;;;;4116856;28;20105;-79
2023/12/31 04:26:37;;;;;;;10.98;7.60;;;4.20;86.70;;;;;;4116847;28;20097;-83
2023/12/31 04:28:39;;;;;;;14.50;8.23;;;4.10;86.70;;;;;;4116968;28;20460;-82
2023/12/31 04:30:41;;;;;;;12.82;7.60;;;4.10;86.80;;;;;;4116984;28;20054;-79
2023/12/31 04:32:42;;;;;;;12.45;7.72;;;4.00;86.90;;;;;;4118185;28;20133;-80
2023/12/31 04:34:44;;;;;;;13.00;7.75;;;4.00;87.10;;;;;;4117259;28;20085;-80
2023/12/31 04:36:47;;;;;;;12.73;7.78;;;4.00;87.90;;;;;;4116569;28;20547;-77
2023/12/31 04:38:49;;;;;;;12.57;7.35;;;3.90;87.90;;;;;;4116803;28;20051;-78
2023/12/31 04:40:51;;;;;;;11.00;6.60;;;3.80;89.30;;;;;;4115876;28;20046;-79
2023/12/31 04:42:53;;;;;;;11.98;6.90;;;3.80;89.80;;;;;;4116113;28;20058;-77
2023/12/31 04:44:55;;;;;;;11.77;6.90;;;3.90;89.30;;;;;;4116556;28;20054;-81
2023/12/31 04:46:56;;;;;;;11.50;7.20;;;3.90;88.70;;;;;;4105857;28;20098;-81
2023/12/31 04:48:58;;;;;;;11.07;6.97;;;3.90;88.60;;;;;;4100572;28;20051;-80
2023/12/31 04:51:00;;;;;;;10.30;6.15;;;3.90;88.70;;;;;;4110144;28;20081;-80
2023/12/31 04:53:04;;;;;;;11.05;6.40;;;3.90;89.40;;;;;;4116171;28;20101;-78
2023/12/31 04:55:07;;;;;;;10.73;6.50;;;3.80;89.20;;;;;;4116395;28;20512;-78
2023/12/31 04:57:08;;;;;;;10.13;6.20;;;3.80;89.20;;;;;;4116529;28;20051;-79
2023/12/31 04:59:09;;;;;;;9.80;5.93;;;3.90;89.20;;;;;;4116335;28;20447;-80
2023/12/31 05:01:11;;;;;;;9.77;5.03;;;4.00;88.90;;;;;;4115900;28;20051;-81
2023/12/31 05:03:13;;;;;;;10.20;6.10;;;4.00;89.20;;;;;;4116496;28;20452;-79
2023/12/31 05:05:15;;;;;;;9.52;5.50;;;4.10;88.90;;;;;;4116951;28;20105;-79
2023/12/31 05:07:17;;;;;;;9.70;5.93;;;4.10;89.20;;;;;;4116303;28;20047;-78
2023/12/31 05:09:20;;;;;;;11.50;6.20;;;4.10;88.70;;;;;;4116117;28;20455;-79
2023/12/31 05:11:25;;;;;;;13.10;6.68;;;3.90;88.10;;;;;;4116318;28;20054;-78
2023/12/31 05:13:26;;;;;;;10.48;6.25;;;3.80;89.00;;;;;;4116036;28;20055;-79
2023/12/31 05:15:28;;;;;;;11.45;6.53;;;3.70;89.20;;;;;;4116317;28;20054;-80
2023/12/31 05:17:30;;;;;;;10.75;6.57;;;3.70;89.20;;;;;;4116106;28;20101;-80
2023/12/31 05:19:32;;;;;;;12.00;7.15;;;3.70;89.20;;;;;;4116105;28;20059;-79
2023/12/31 05:21:33;;;;;;;11.45;6.45;;;3.60;89.10;;;;;;4116175;28;20059;-80
2023/12/31 05:23:35;;;;;;;10.55;6.28;;;3.50;90.00;;;;;;4116311;28;20055;-80
2023/12/31 05:25:38;;;;;;;8.93;5.75;;;3.60;90.10;;;;;;4116129;28;20047;-79
2023/12/31 05:27:40;;;;;;;9.63;5.78;;;3.60;90.10;;;;;;4116103;28;20098;-80
2023/12/31 05:29:42;;;;;;;10.98;6.13;;;3.80;90.10;;;;;;4115874;28;20101;-80
2023/12/31 05:31:44;;;;;;;10.38;6.10;;;3.80;89.70;;;;;;4116053;28;20133;-81
2023/12/31 05:33:46;;;;;;;10.48;5.97;;;3.90;89.50;;;;;;4116089;28;20488;-79
2023/12/31 05:35:48;;;;;;;10.68;6.00;;;3.80;88.70;;;;;;4115968;28;20086;-81
2023/12/31 05:37:49;;;;;;;12.50;5.93;;;3.80;89.10;;;;;;4115871;28;20061;-80
2023/12/31 05:39:51;;;;;;;11.02;6.13;;;3.80;88.70;;;;;;4115980;28;20133;-79
2023/12/31 05:41:55;;;;;;;10.98;6.85;;;3.60;89.20;;;;;;4115997;28;20078;-80
2023/12/31 05:43:57;;;;;;;12.32;6.22;;;3.60;90.00;;;;;;4115939;28;20098;-80
2023/12/31 05:45:59;;;;;;;10.30;6.10;;;3.70;89.70;;;;;;4116135;28;20503;-79
2023/12/31 05:47:59;;;;;;;9.95;6.00;;;3.70;89.20;;;;;;4116121;28;20059;-78
2023/12/31 05:50:01;;;;;;;10.55;6.57;;;3.70;89.30;;;;;;4115761;28;20053;-80
2023/12/31 05:52:04;;;;;;;9.82;6.25;;;3.70;89.40;;;;;;4116523;28;20051;-80
2023/12/31 05:54:06;;;;;;;9.60;5.72;;;3.80;89.30;;;;;;4118967;28;20063;-78
2023/12/31 05:56:09;;;;;;;10.77;5.78;;;3.80;89.20;;;;;;4119106;28;20054;-81
2023/12/31 05:58:12;;;;;;;9.55;5.43;;;3.80;89.90;;;;;;4118948;28;20053;-83
2023/12/31 06:00:15;;;;;;;11.45;6.07;;;3.90;89.60;;;;;;4111764;28;20500;-84
2023/12/31 06:02:17;;;;;;;10.85;6.50;;;3.90;89.70;;;;;;4103400;28;20056;-83
2023/12/31 06:04:19;;;;;;;10.88;5.32;;;3.80;90.00;;;;;;4104931;28;20055;-83
2023/12/31 06:06:21;;;;;;;10.30;5.78;;;3.90;90.10;;;;;;4119344;28;20521;-81
2023/12/31 06:08:23;;;;;;;9.02;5.65;;;4.00;89.50;;;;;;4119043;28;20050;-85
2023/12/31 06:10:25;;;;;;;9.55;5.85;;;4.00;89.50;;;;;;4119250;28;20062;-83
2023/12/31 06:12:26;;;;;;;11.00;5.45;;;4.00;89.40;;;;;;4119678;28;20090;-81
2023/12/31 06:14:29;;;;;;;11.95;6.13;;;4.10;89.20;;;;;;4121196;28;20047;-84
2023/12/31 06:16:31;;;;;;;11.07;6.10;;;4.00;88.50;;;;;;4120014;28;20396;-83
2023/12/31 06:18:33;;;;;;;9.70;5.65;;;3.90;89.30;;;;;;4119040;28;20046;-80
2023/12/31 06:20:35;;;;;;;9.07;5.32;;;4.00;89.90;;;;;;4118379;28;20121;-82
2023/12/31 06:22:37;;;;;;;10.13;6.15;;;4.00;89.00;;;;;;4118704;28;20046;-78
2023/12/31 06:24:38;;;;;;;10.25;5.90;;;3.70;88.20;;;;;;4118704;28;20078;-79
2023/12/31 06:26:40;;;;;;;8.70;4.95;;;3.70;89.70;;;;;;4118624;28;20091;-76
2023/12/31 06:28:42;;;;;;;9.02;5.18;;;3.70;90.20;;;;;;4118523;28;20051;-80
2023/12/31 06:30:45;;;;;;;8.23;5.20;;;3.80;90.10;;;;;;4118942;28;20054;-78
2023/12/31 06:32:47;;;;;;;8.65;5.20;;;3.90;89.50;;;;;;4115415;28;20473;-80
2023/12/31 06:34:48;;;;;;;8.95;5.65;;;4.00;90.00;;;;;;4117054;28;20492;-80
2023/12/31 06:36:50;;;;;;;9.90;5.63;;;4.00;88.60;;;;;;4110176;28;20085;-80
2023/12/31 06:38:53;;;;;;;12.05;5.32;;;3.90;89.50;;;;;;4117978;28;20093;-78
2023/12/31 06:40:55;;;;;;;11.73;5.63;;;3.90;89.50;;;;;;4117358;28;20516;-79
2023/12/31 06:42:57;;;;;;;11.43;6.45;;;3.60;88.80;;;;;;4118227;28;20110;-78
2023/12/31 06:44:58;;;;;;;10.88;6.72;;;3.60;90.50;;;;;;4120854;28;20070;-78
2023/12/31 06:47:01;;;;;;;10.52;6.38;;;3.70;90.60;;;;;;4117899;28;20058;-79
2023/12/31 06:49:03;;;;;;;9.68;5.78;;;3.30;90.20;;;;;;4117370;28;20401;-84
2023/12/31 06:51:06;;;;;;;10.48;5.93;;;3.30;90.60;;;;;;4107733;28;20074;-83
2023/12/31 06:53:08;;;;;;;9.80;5.63;;;3.30;90.20;;;;;;4110904;28;20101;-83
2023/12/31 06:55:11;;;;;;;10.02;5.55;;;3.30;90.30;;;;;;4116767;28;20459;-82
2023/12/31 06:57:13;;;;;;;10.52;6.03;;;3.30;90.40;;;;;;4118743;28;20059;-81
2023/12/31 06:59:14;;;;;;;11.18;6.40;;;3.10;90.90;;;;;;4118932;28;20551;-86
2023/12/31 07:01:16;;;;;;;10.18;6.13;;;3.00;91.00;;;;;;4118997;28;20046;-83
2023/12/31 07:03:19;;;;;;;10.23;5.47;;;3.00;91.30;;;;;;4103254;28;20051;-85
2023/12/31 07:05:20;;;;;;;9.98;5.72;;;3.20;91.10;;;;;;4118534;28;20050;-84
2023/12/31 07:07:22;;;;;;;9.30;5.57;;;3.20;91.00;;;;;;4104393;28;20050;-85
2023/12/31 07:09:24;;;;;;;8.68;5.40;;;3.30;91.00;;;;;;4134554;28;20050;-84
2023/12/31 07:11:26;;;;;;;10.50;5.85;;;3.40;90.90;;;;;;4134628;28;20117;-81
2023/12/31 07:13:27;;;;;;;9.20;5.60;;;3.40;90.90;;;;;;4131059;28;20101;-82
2023/12/31 07:15:29;;;;;;;9.38;5.47;;;3.50;90.80;;;;;;4123932;28;20611;-81
2023/12/31 07:17:31;;;;;;;6.90;4.45;;;3.70;90.60;;;;;;4134020;28;20480;-83
2023/12/31 07:19:34;;;;;;;6.38;4.15;;;3.70;90.40;;;;;;4130143;28;20046;-81
2023/12/31 07:21:35;;;;;;;8.32;4.40;;;3.90;90.10;;;;;;4134238;28;20113;-80
2023/12/31 07:23:37;;;;;;;8.52;4.05;;;4.10;89.70;;;;;;4134101;28;20054;-82
2023/12/31 07:25:39;;;;;;;6.97;3.92;;;4.20;89.10;;;;;;4133994;28;20152;-82
2023/12/31 07:27:41;;;;;;;7.55;4.10;;;4.30;88.80;;;;;;4116937;28;20047;-83
2023/12/31 07:29:43;;;;;;;8.13;4.57;;;4.40;88.60;;;;;;4133806;28;20481;-82
2023/12/31 07:31:45;;;;;;;8.80;5.10;;;4.40;88.40;;;;;;4129821;28;20054;-80
2023/12/31 07:33:47;;;;;;;7.13;3.72;;;4.40;88.30;;;;;;4134167;28;20365;-82
2023/12/31 07:35:51;;;;;;;6.22;3.58;;;4.40;88.30;;;;;;4133685;28;20105;-82
2023/12/31 07:37:52;;;;;;;7.22;3.47;;;4.50;88.30;;;;;;4133406;28;20042;-81
2023/12/31 07:39:54;;;;;;;7.28;3.75;;;4.50;88.30;;;;;;4133827;28;20053;-83
2023/12/31 07:41:56;;;;;;;6.88;3.60;;;4.60;88.10;;;;;;4134192;28;20047;-82
2023/12/31 07:43:57;;;;;;;7.03;3.50;;;4.60;87.90;;;;;;4133858;28;20093;-82
2023/12/31 07:45:59;;;;;;;6.13;3.20;;;4.70;87.50;;;;;;4129834;28;20480;-80
2023/12/31 07:48:01;;;;;;;7.65;3.70;;;4.70;86.80;;;;;;4123687;28;20113;-81
2023/12/31 07:50:03;;;;;;;6.85;3.65;;;4.80;86.50;;;;;;4106727;28;20440;-81
2023/12/31 07:52:07;;;;;;;5.72;3.22;;;4.90;86.00;;;;;;4131863;28;20444;-82
2023/12/31 07:54:09;;;;;;;5.30;2.83;;;4.90;85.60;;;;;;4134094;28;20058;-81
2023/12/31 07:56:11;;;;;;;5.72;3.00;;;5.00;84.80;;;;;;4133266;28;20097;-82
2023/12/31 07:58:13;;;;;;;6.40;3.45;;;5.10;84.40;;;;;;4137300;28;20054;-82
2023/12/31 08:00:16;;;;;;;5.80;3.20;;;5.10;84.00;;;;;;4135089;28;20459;-81
2023/12/31 08:02:18;;;;;;;7.35;3.83;;;5.20;84.40;;;;;;4133687;28;20458;-80
2023/12/31 08:04:20;;;;;;;7.03;3.20;;;5.20;84.20;;;;;;4134774;28;20062;-80
2023/12/31 08:06:22;;;;;;;7.47;3.17;;;5.30;83.90;;;;;;4134833;28;20566;-78
2023/12/31 08:08:25;;;;;;;7.05;3.40;;;5.30;83.80;;;;;;4133104;28;20487;-80
2023/12/31 08:10:27;;;;;;;5.88;3.45;;;5.40;83.00;;;;;;4133585;28;20081;-87
2023/12/31 08:12:29;;;;;;;4.63;2.78;;;5.30;84.00;;;;;;4134918;28;20120;-87
2023/12/31 08:14:31;;;;;;;6.18;2.90;;;5.40;82.70;;;;;;4132562;28;20126;-82
2023/12/31 08:16:33;;;;;;;5.82;3.35;;;5.50;81.10;;;;;;4132710;28;20473;-81
2023/12/31 08:18:34;;;;;;;5.63;3.08;;;5.50;82.80;;;;;;4133106;28;20124;-79
2023/12/31 08:20:36;;;;;;;6.10;3.10;;;5.50;82.90;;;;;;4132915;28;20043;-81
2023/12/31 08:22:38;;;;;;;6.47;3.10;;;5.60;81.80;;;;;;4132813;28;20100;-80
2023/12/31 08:24:41;;;;;;;5.20;2.67;;;5.70;80.60;;;;;;4130698;28;21712;-81
2023/12/31 08:26:42;;;;;;;5.53;3.17;;;5.70;80.30;;;;;;4129451;28;20039;-85
2023/12/31 08:28:44;;;;;;;6.32;3.03;;;5.80;80.00;;;;;;4120439;28;20589;-82
2023/12/31 08:30:45;;;;;;;4.70;2.80;;;5.80;79.80;;;;;;4121313;28;20046;-82
2023/12/31 08:32:46;;;;;;;4.85;2.70;;;5.90;79.40;;;;;;4124618;28;20050;-81
2023/12/31 08:34:48;;;;;;;5.40;3.05;;;5.90;79.60;;;;;;4124006;28;20096;-82
2023/12/31 08:36:49;;;;;;;5.93;3.35;;;6.00;79.20;;;;;;4114707;28;20381;-80
2023/12/31 08:38:51;;;;;;;7.47;3.78;;;6.00;79.00;;;;;;4132638;28;20078;-82
2023/12/31 08:40:54;;;;;;;5.40;3.50;;;6.10;79.10;;;;;;4131043;28;20050;-81
2023/12/31 08:42:57;;;;;;;6.40;3.33;;;6.10;78.90;;;;;;4131492;28;20057;-80
2023/12/31 08:44:58;;;;;;;4.78;2.78;;;6.20;79.10;;;;;;4132399;28;20392;-81
2023/12/31 08:47:00;;;;;;;8.18;3.33;;;6.20;78.80;;;;;;4132382;28;20046;-82
2023/12/31 08:49:02;;;;;;;6.57;3.92;;;6.30;79.10;;;;;;4130959;28;20105;-83
2023/12/31 08:51:04;;;;;;;8.40;4.80;;;6.30;78.90;;;;;;4119077;28;20105;-82
2023/12/31 08:53:06;;;;;;;8.75;4.63;;;6.30;79.00;;;;;;4116576;28;20059;-84
2023/12/31 08:55:09;;;;;;;12.38;5.20;;;6.30;79.30;;;;;;4120583;28;20069;-81
2023/12/31 08:57:12;;;;;;;9.75;5.28;;;6.30;79.40;;;;;;4132394;28;20046;-81
2023/12/31 08:59:13;;;;;;;8.95;5.10;;;6.20;79.60;;;;;;4132714;28;20496;-82
2023/12/31 09:01:15;;;;;;;7.55;5.00;;;6.30;79.50;;;;;;4133602;28;20130;-83
2023/12/31 09:03:17;;;;;;;7.00;4.28;;;6.30;79.70;;;;;;4132991;28;20104;-84
2023/12/31 09:05:18;;;;;;;7.00;4.50;;;6.30;79.90;;;;;;4132343;28;20050;-81
2023/12/31 09:07:19;;;;;;;8.13;5.18;;;6.40;79.80;;;;;;4115589;28;20082;-82
2023/12/31 09:09:23;;;;;;;10.20;4.75;;;6.40;79.60;;;;;;4132545;28;20050;-83
2023/12/31 09:11:25;;;;;;;8.02;5.07;;;6.40;79.60;;;;;;4138084;28;20069;-83
2023/12/31 09:13:27;;;;;;;11.05;6.90;;;6.50;79.60;;;;;;4132435;28;20105;-82
2023/12/31 09:15:29;;;;;;;10.85;6.68;;;6.40;79.40;;;;;;4132505;28;20105;-81
2023/12/31 09:17:30;;;;;;;11.30;6.75;;;6.50;79.80;;;;;;4132431;28;20046;-81
2023/12/31 09:19:32;;;;;;;9.65;5.93;;;6.60;80.20;;;;;;4132646;28;20054;-83
2023/12/31 09:21:34;;;;;;;10.07;5.85;;;6.60;79.90;;;;;;4133106;28;20547;-84
2023/12/31 09:23:36;;;;;;;7.82;5.13;;;6.60;80.30;;;;;;4133653;28;20105;-83
2023/12/31 09:25:38;;;;;;;8.98;5.85;;;6.60;79.00;;;;;;4132481;28;20078;-86
2023/12/31 09:27:40;;;;;;;9.20;5.72;;;6.60;79.00;;;;;;4131512;28;20078;-80
2023/12/31 09:29:42;;;;;;;9.43;5.90;;;6.50;78.60;;;;;;4123324;28;20050;-83
2023/12/31 09:31:44;;;;;;;11.95;6.43;;;6.60;79.60;;;;;;4117587;28;20488;-80
2023/12/31 09:33:46;;;;;;;9.90;6.55;;;6.60;80.70;;;;;;4128493;28;20046;-84
2023/12/31 09:35:48;;;;;;;10.13;6.25;;;6.70;80.00;;;;;;4126605;28;20496;-80
2023/12/31 09:37:50;;;;;;;11.73;6.68;;;6.70;79.60;;;;;;4126614;28;20547;-82
2023/12/31 09:39:50;;;;;;;12.35;6.72;;;6.60;81.10;;;;;;4127076;28;20050;-81
2023/12/31 09:41:54;;;;;;;12.15;7.30;;;6.50;82.70;;;;;;4134993;28;20100;-82
2023/12/31 09:43:56;;;;;;;10.52;6.70;;;6.50;82.60;;;;;;4135092;28;20057;-80
2023/12/31 09:46:00;;;;;;;9.13;6.28;;;6.40;82.10;;;;;;4121899;28;20105;-79
2023/12/31 09:48:03;;;;;;;10.05;6.20;;;6.40;82.20;;;;;;4106334;28;20039;-78
2023/12/31 09:50:07;;;;;;;10.73;6.55;;;6.40;82.00;;;;;;4129811;28;20475;-77
2023/12/31 09:52:10;;;;;;;9.57;6.10;;;6.40;81.70;;;;;;4127811;28;20121;-79
2023/12/31 09:54:11;;;;;;;10.45;6.05;;;6.50;81.60;;;;;;4135407;28;20117;-84
2023/12/31 09:56:16;;;;;;;10.30;5.70;;;6.50;81.10;;;;;;4131836;28;20117;-78
2023/12/31 09:58:21;;;;;;;8.70;5.78;;;6.60;81.10;;;;;;4128696;28;20050;-77
2023/12/31 10:00:22;;;;;;;9.23;6.00;;;6.70;81.00;;;;;;4121810;28;20711;-82
2023/12/31 10:02:26;;;;;;;9.27;6.30;;;6.80;81.10;;;;;;4129382;28;20062;-77
2023/12/31 10:04:28;;;;;;;10.23;6.57;;;6.90;81.90;;;;;;4132758;28;20057;-77
2023/12/31 10:06:32;;;;;;;11.48;7.07;;;6.90;82.10;;;;;;4133059;28;20536;-78
2023/12/31 10:08:34;;;;;;;9.93;6.38;;;7.00;81.80;;;;;;4133385;28;20443;-84
2023/12/31 10:10:38;;;;;;;11.75;7.70;;;7.00;81.60;;;;;;4132827;28;20046;-81
2023/12/31 10:12:40;;;;;;;16.33;10.05;;;7.00;81.70;;;;;;4141339;28;20050;-79
2023/12/31 10:14:42;;;;;;;9.98;6.80;;;7.10;82.00;;;;;;4127987;28;20047;-79
2023/12/31 10:16:44;;;;;;;11.98;6.55;;;7.10;82.10;;;;;;4126860;28;20475;-80
2023/12/31 10:18:46;;;;;;;10.82;6.20;;;7.10;82.10;;;;;;4132206;28;20054;-81
2023/12/31 10:20:48;;;;;;;11.10;6.18;;;7.20;81.90;;;;;;4126160;28;20734;-78
2023/12/31 10:22:50;;;;;;;8.68;5.18;;;7.40;80.00;;;;;;4130659;28;20847;-85
2023/12/31 10:24:52;;;;;;;5.40;3.15;;;7.50;79.30;;;;;;4132636;28;20373;-83
2023/12/31 10:26:55;;;;;;;4.97;2.90;;;7.60;76.30;;;;;;4127961;28;20054;-83
2023/12/31 10:28:57;;;;;;;4.90;2.50;;;7.80;74.50;;;;;;4126055;28;20054;-80
2023/12/31 10:30:59;;;;;;;5.45;2.63;;;7.90;72.30;;;;;;4107885;28;20055;-78
2023/12/31 10:33:10;;;;;;;3.58;1.70;;;8.00;71.20;;;;;;4107311;28;20096;-78
2023/12/31 10:35:13;;;;;;;3.60;1.60;;;8.20;69.00;;;;;;4116761;28;20046;-82
2023/12/31 10:37:20;;;;;;;3.53;1.70;;;8.40;67.70;;;;;;4111246;28;20049;-78